Time;durP1;ratioP1;P1;durP2;ratioP2;P2;SDS_P1;SDS_P2;PMS_P1;PMS_P2;Temp;Humidity;BMP_temperature;BMP_pressure;BME280_temperature;BME280_humidity;BME280_pressure;Samples;Min_cycle;Max_cycle;Signal;HPM_P1;HPM_P2
2022/08/20 00:00:07;;;;;;;;;;;22.60;86.60;;;;;;4901507;29;19934;-77
2022/08/20 00:02:43;;;;;;;;;;;22.60;85.70;;;;;;4915836;29;19954;-77
2022/08/20 00:05:09;;;;;;;;;;;22.70;85.80;;;;;;4898989;29;20371;-78
2022/08/20 00:07:35;;;;;;;;;;;22.70;85.00;;;;;;4928615;29;19970;-78
2022/08/20 00:10:00;;;;;;;;;;;22.70;85.10;;;;;;4916113;29;19930;-77
2022/08/20 00:12:26;;;;;;;;;;;22.60;86.00;;;;;;4916062;29;20001;-77
2022/08/20 00:14:51;;;;;;;;;;;22.50;87.10;;;;;;4915895;29;19911;-78
2022/08/20 00:17:17;;;;;;;;;;;22.50;87.60;;;;;;4916290;29;19923;-76
2022/08/20 00:19:42;;;;;;;;;;;22.50;88.00;;;;;;4915706;29;19997;-76
2022/08/20 00:22:08;;;;;;;;;;;22.50;87.40;;;;;;4915838;29;19978;-75
2022/08/20 00:24:34;;;;;;;;;;;22.50;87.40;;;;;;4915956;29;19915;-77
2022/08/20 00:26:59;;;;;;;;;;;22.60;86.80;;;;;;4915681;29;19926;-79
2022/08/20 00:29:25;;;;;;;;;;;22.70;86.30;;;;;;4915603;29;19922;-76
2022/08/20 00:31:50;;;;;;;;;;;22.80;85.80;;;;;;4904874;29;19925;-77
2022/08/20 00:34:16;;;;;;;;;;;22.90;86.10;;;;;;4915860;29;19911;-78
2022/08/20 00:36:42;;;;;;;;;;;22.90;84.90;;;;;;4915594;29;19989;-76
2022/08/20 00:39:07;;;;;;;;;;;22.90;84.90;;;;;;4917320;29;20010;-77
2022/08/20 00:41:33;;;;;;;;;;;22.90;85.20;;;;;;4919530;29;20047;-78
2022/08/20 00:44:24;;;;;;;;;;;22.80;85.90;;;;;;4919504;29;19915;-79
2022/08/20 00:46:51;;;;;;;;;;;22.90;86.60;;;;;;4914481;29;19984;-75
2022/08/20 00:49:25;;;;;;;;;;;22.80;86.20;;;;;;4919275;29;19974;-78
2022/08/20 00:51:59;;;;;;;;;;;22.70;86.70;;;;;;4919331;29;19919;-76
2022/08/20 00:54:34;;;;;;;;;;;22.50;87.70;;;;;;4919423;29;19919;-76
2022/08/20 00:57:07;;;;;;;;;;;22.40;88.80;;;;;;4919168;29;20406;-76
2022/08/20 00:59:35;;;;;;;;;;;22.40;89.10;;;;;;4892207;29;19985;-74
2022/08/20 01:02:01;;;;;;;;;;;22.40;89.60;;;;;;4902207;29;19911;-76
2022/08/20 01:04:30;;;;;;;;;;;22.30;89.70;;;;;;4919199;29;19911;-76
2022/08/20 01:06:56;;;;;;;;;;;22.20;89.70;;;;;;4926845;29;20375;-78
2022/08/20 01:09:22;;;;;;;;;;;22.20;90.10;;;;;;4924515;29;19970;-76
2022/08/20 01:11:47;;;;;;;;;;;22.40;88.70;;;;;;4919070;29;19978;-77
2022/08/20 01:16:59;;;;;;;;;;;22.50;87.40;;;;;;4919528;29;20264;-77
2022/08/20 01:19:33;;;;;;;;;;;22.60;86.90;;;;;;4919027;29;19942;-76
2022/08/20 01:21:59;;;;;;;;;;;22.70;86.40;;;;;;4901740;29;19919;-76
2022/08/20 01:24:35;;;;;;;;;;;22.70;86.00;;;;;;4918840;29;20010;-76
2022/08/20 01:27:01;;;;;;;;;;;22.80;85.50;;;;;;4918630;29;19919;-76
2022/08/20 01:29:28;;;;;;;;;;;22.90;85.30;;;;;;4918642;29;19918;-75
2022/08/20 01:32:00;;;;;;;;;;;22.80;85.60;;;;;;4909687;29;19915;-76
2022/08/20 01:34:26;;;;;;;;;;;22.80;85.50;;;;;;4919133;29;19911;-78
2022/08/20 01:36:53;;;;;;;;;;;22.60;86.50;;;;;;4919388;29;19911;-79
2022/08/20 01:39:21;;;;;;;;;;;22.60;87.00;;;;;;4910519;29;20398;-79
2022/08/20 01:42:06;;;;;;;;;;;22.50;86.60;;;;;;4923714;29;19912;-79
2022/08/20 01:44:33;;;;;;;;;;;22.40;86.80;;;;;;4928718;29;20005;-79
2022/08/20 01:47:16;;;;;;;;;;;22.40;87.30;;;;;;4922787;29;19926;-78
2022/08/20 01:49:44;;;;;;;;;;;22.30;87.60;;;;;;4918431;29;19919;-77
2022/08/20 01:52:12;;;;;;;;;;;22.30;88.00;;;;;;4918435;29;19965;-77
2022/08/20 01:54:38;;;;;;;;;;;22.10;88.80;;;;;;4918366;29;19938;-77
2022/08/20 01:57:09;;;;;;;;;;;22.00;89.40;;;;;;4918238;29;20415;-77
2022/08/20 01:59:34;;;;;;;;;;;22.00;89.70;;;;;;4902832;29;19927;-78
2022/08/20 02:02:01;;;;;;;;;;;22.10;90.00;;;;;;4917991;29;19919;-78
2022/08/20 02:04:27;;;;;;;;;;;22.00;90.00;;;;;;4918016;29;20311;-76
2022/08/20 02:06:55;;;;;;;;;;;22.10;89.10;;;;;;4925191;29;19914;-78
2022/08/20 02:09:20;;;;;;;;;;;22.00;89.10;;;;;;4923798;29;19915;-79
2022/08/20 02:11:46;;;;;;;;;;;22.00;88.60;;;;;;4918608;29;19922;-79
2022/08/20 02:14:13;;;;;;;;;;;22.20;87.90;;;;;;4918474;29;20009;-76
2022/08/20 02:16:40;;;;;;;;;;;22.20;87.30;;;;;;4917884;29;19916;-78
2022/08/20 02:19:11;;;;;;;;;;;22.20;87.60;;;;;;4917839;29;19919;-76
2022/08/20 02:21:39;;;;;;;;;;;22.10;88.00;;;;;;4917791;29;20002;-76
2022/08/20 02:24:05;;;;;;;;;;;22.20;88.20;;;;;;4918065;29;20043;-78
2022/08/20 02:26:32;;;;;;;;;;;22.20;88.30;;;;;;4917576;29;20077;-76
2022/08/20 02:28:58;;;;;;;;;;;22.20;88.20;;;;;;4917649;29;19919;-78
2022/08/20 02:31:23;;;;;;;;;;;22.10;88.60;;;;;;4901122;29;19915;-77
2022/08/20 02:33:49;;;;;;;;;;;22.10;88.70;;;;;;4917439;29;20252;-79
2022/08/20 02:36:17;;;;;;;;;;;22.10;89.10;;;;;;4917413;29;19930;-77
2022/08/20 02:38:43;;;;;;;;;;;22.00;89.80;;;;;;4917234;29;19926;-77
2022/08/20 02:41:09;;;;;;;;;;;22.10;90.00;;;;;;4917488;29;20283;-78
2022/08/20 02:43:36;;;;;;;;;;;21.90;90.10;;;;;;4917147;29;19954;-76
2022/08/20 02:46:02;;;;;;;;;;;21.90;90.30;;;;;;4917452;29;20359;-77
2022/08/20 02:48:28;;;;;;;;;;;21.90;90.30;;;;;;4917206;29;19923;-77
2022/08/20 02:50:55;;;;;;;;;;;22.00;90.20;;;;;;4917445;29;20390;-77
2022/08/20 02:53:21;;;;;;;;;;;22.00;90.20;;;;;;4917070;29;19970;-79
2022/08/20 02:55:47;;;;;;;;;;;21.90;90.40;;;;;;4900108;29;19919;-76
2022/08/20 02:58:13;;;;;;;;;;;22.00;90.10;;;;;;4916974;29;20371;-77
2022/08/20 03:00:38;;;;;;;;;;;22.10;89.90;;;;;;4900130;29;20367;-78
2022/08/20 03:03:05;;;;;;;;;;;22.10;89.40;;;;;;4916508;29;19911;-77
2022/08/20 03:05:31;;;;;;;;;;;22.10;88.40;;;;;;4916906;29;20051;-76
2022/08/20 03:07:57;;;;;;;;;;;22.20;88.20;;;;;;4930124;29;20021;-78
2022/08/20 03:10:24;;;;;;;;;;;22.30;87.20;;;;;;4899817;29;20043;-77
2022/08/20 03:12:50;;;;;;;;;;;22.30;87.00;;;;;;4916787;29;19937;-79
2022/08/20 03:15:16;;;;;;;;;;;22.30;86.70;;;;;;4916825;29;19915;-77
2022/08/20 03:17:41;;;;;;;;;;;22.30;86.50;;;;;;4916768;29;20386;-78
2022/08/20 03:20:07;;;;;;;;;;;22.30;86.30;;;;;;4916537;29;19918;-78
2022/08/20 03:22:33;;;;;;;;;;;22.30;86.40;;;;;;4916780;29;20014;-79
2022/08/20 03:24:58;;;;;;;;;;;22.30;86.70;;;;;;4916655;29;20387;-78
2022/08/20 03:27:24;;;;;;;;;;;22.40;85.40;;;;;;4916775;29;20025;-77
2022/08/20 03:29:50;;;;;;;;;;;22.50;84.10;;;;;;4903817;29;19919;-77
2022/08/20 03:32:15;;;;;;;;;;;22.60;84.50;;;;;;4916617;29;20350;-77
2022/08/20 03:34:41;;;;;;;;;;;22.60;83.80;;;;;;4916477;29;19971;-76
2022/08/20 03:37:06;;;;;;;;;;;22.60;83.70;;;;;;4916371;29;20328;-76
2022/08/20 03:39:32;;;;;;;;;;;22.60;82.70;;;;;;4916225;29;20276;-79
2022/08/20 03:41:58;;;;;;;;;;;22.70;82.20;;;;;;4916376;29;19958;-78
2022/08/20 03:44:25;;;;;;;;;;;22.70;82.30;;;;;;4899370;29;19913;-77
2022/08/20 03:46:51;;;;;;;;;;;22.70;81.10;;;;;;4915972;29;20018;-76
2022/08/20 03:49:16;;;;;;;;;;;22.80;81.10;;;;;;4899401;29;19997;-77
2022/08/20 03:51:42;;;;;;;;;;;22.60;81.70;;;;;;4916327;29;20516;-77
2022/08/20 03:54:07;;;;;;;;;;;22.40;82.70;;;;;;4916306;29;19911;-78
2022/08/20 03:56:33;;;;;;;;;;;22.40;83.50;;;;;;4916184;29;20367;-76
2022/08/20 03:58:58;;;;;;;;;;;22.20;84.20;;;;;;4915989;29;20655;-76
2022/08/20 04:01:24;;;;;;;;;;;22.10;85.50;;;;;;4911476;29;19938;-76
2022/08/20 04:03:50;;;;;;;;;;;22.00;85.50;;;;;;4915931;29;19986;-75
2022/08/20 04:06:17;;;;;;;;;;;21.90;85.60;;;;;;4901318;29;19927;-80
2022/08/20 04:08:42;;;;;;;;;;;21.90;85.30;;;;;;4926539;29;19919;-77
2022/08/20 04:11:08;;;;;;;;;;;22.00;85.40;;;;;;4915898;29;19966;-77
2022/08/20 04:13:33;;;;;;;;;;;22.10;84.90;;;;;;4915861;29;19911;-76
2022/08/20 04:16:07;;;;;;;;;;;22.10;84.80;;;;;;4898904;29;20390;-79
2022/08/20 04:18:35;;;;;;;;;;;22.10;84.40;;;;;;4915901;29;20267;-78
2022/08/20 04:21:02;;;;;;;;;;;22.00;83.60;;;;;;4915842;29;19915;-79
2022/08/20 04:23:28;;;;;;;;;;;22.10;84.00;;;;;;4915835;29;19918;-76
2022/08/20 04:25:54;;;;;;;;;;;22.20;81.70;;;;;;4899048;29;20315;-77
2022/08/20 04:28:26;;;;;;;;;;;22.40;78.10;;;;;;4915805;29;19946;-76
2022/08/20 04:30:52;;;;;;;;;;;22.60;77.20;;;;;;4900904;29;19967;-76
2022/08/20 04:33:18;;;;;;;;;;;22.70;75.50;;;;;;4898722;29;20435;-77
2022/08/20 04:35:44;;;;;;;;;;;22.90;74.50;;;;;;4915881;29;20015;-78
2022/08/20 04:38:12;;;;;;;;;;;23.00;73.10;;;;;;4915788;29;20348;-78
2022/08/20 04:40:53;;;;;;;;;;;23.20;72.40;;;;;;4915701;29;19947;-78
2022/08/20 04:43:21;;;;;;;;;;;23.20;72.20;;;;;;4915915;29;19921;-75
2022/08/20 04:45:47;;;;;;;;;;;23.10;72.60;;;;;;4915778;29;19966;-76
2022/08/20 04:48:13;;;;;;;;;;;23.10;72.60;;;;;;4915713;29;19920;-78
2022/08/20 04:50:40;;;;;;;;;;;23.20;72.10;;;;;;4915382;29;19933;-79
2022/08/20 04:53:08;;;;;;;;;;;23.20;71.70;;;;;;4916490;29;19915;-77
2022/08/20 04:55:34;;;;;;;;;;;23.20;71.80;;;;;;4915716;29;19970;-78
2022/08/20 04:58:08;;;;;;;;;;;23.30;71.10;;;;;;4915598;29;19923;-69
2022/08/20 05:00:34;;;;;;;;;;;23.30;70.90;;;;;;4903920;29;19967;-68
2022/08/20 05:03:00;;;;;;;;;;;23.40;70.80;;;;;;4915521;29;19915;-73
2022/08/20 05:05:26;;;;;;;;;;;23.50;69.90;;;;;;4915266;29;20003;-71
2022/08/20 05:07:52;;;;;;;;;;;23.50;69.60;;;;;;4928484;29;19918;-69
2022/08/20 05:10:17;;;;;;;;;;;23.50;69.60;;;;;;4905766;29;19915;-74
2022/08/20 05:12:43;;;;;;;;;;;23.50;69.40;;;;;;4921454;29;19915;-64
2022/08/20 05:15:10;;;;;;;;;;;23.50;69.60;;;;;;4915281;29;20252;-69
2022/08/20 05:17:45;;;;;;;;;;;23.50;69.70;;;;;;4915353;29;19911;-70
2022/08/20 05:20:12;;;;;;;;;;;23.50;69.00;;;;;;4915107;29;20006;-67
2022/08/20 05:22:38;;;;;;;;;;;23.50;69.20;;;;;;4915656;29;19911;-72
2022/08/20 05:25:04;;;;;;;;;;;23.50;69.50;;;;;;4916608;29;19922;-69
2022/08/20 05:27:30;;;;;;;;;;;23.60;68.40;;;;;;4918708;29;19931;-69
2022/08/20 05:29:59;;;;;;;;;;;23.60;68.50;;;;;;4901537;29;20295;-69
2022/08/20 05:32:25;;;;;;;;;;;23.80;67.20;;;;;;4901509;29;19919;-69
2022/08/20 05:34:51;;;;;;;;;;;23.80;66.30;;;;;;4918629;29;19912;-70
2022/08/20 05:37:16;;;;;;;;;;;24.00;66.60;;;;;;4918706;29;19912;-69
2022/08/20 05:39:43;;;;;;;;;;;24.00;67.30;;;;;;4918820;29;19911;-71
2022/08/20 05:42:10;;;;;;;;;;;24.00;67.30;;;;;;4902879;29;20397;-72
2022/08/20 05:44:36;;;;;;;;;;;24.00;68.60;;;;;;4919710;29;19911;-69
2022/08/20 05:47:03;;;;;;;;;;;24.10;68.60;;;;;;4919870;29;20006;-69
2022/08/20 05:49:28;;;;;;;;;;;24.20;70.20;;;;;;4919484;29;19918;-70
2022/08/20 05:51:54;;;;;;;;;;;24.20;71.40;;;;;;4919838;29;19911;-66
2022/08/20 05:54:20;;;;;;;;;;;23.60;76.60;;;;;;4919699;29;20009;-69
2022/08/20 05:56:46;;;;;;;;;;;23.50;76.70;;;;;;4919219;29;19950;-70
2022/08/20 05:59:12;;;;;;;;;;;23.50;76.80;;;;;;4919331;29;19962;-68
2022/08/20 06:01:39;;;;;;;;;;;23.60;77.10;;;;;;4919589;29;19958;-67
2022/08/20 06:04:23;;;;;;;;;;;23.70;76.90;;;;;;4919384;29;19911;-65
2022/08/20 06:06:50;;;;;;;;;;;24.00;76.50;;;;;;4919464;29;19911;-71
2022/08/20 06:09:17;;;;;;;;;;;24.20;75.30;;;;;;4919099;29;20344;-70
2022/08/20 06:11:43;;;;;;;;;;;24.50;74.50;;;;;;4919249;29;19943;-70
2022/08/20 06:14:08;;;;;;;;;;;24.80;74.00;;;;;;4919246;29;20617;-71
2022/08/20 06:16:34;;;;;;;;;;;25.10;72.10;;;;;;4919573;29;19911;-71
2022/08/20 06:18:59;;;;;;;;;;;25.40;71.70;;;;;;4918712;29;19915;-67
2022/08/20 06:21:25;;;;;;;;;;;25.60;71.50;;;;;;4919355;29;20273;-70
2022/08/20 06:23:52;;;;;;;;;;;25.90;70.30;;;;;;4919023;29;20033;-72
2022/08/20 06:26:18;;;;;;;;;;;25.90;69.30;;;;;;4919711;29;20280;-71
2022/08/20 06:28:43;;;;;;;;;;;25.90;69.20;;;;;;4918698;29;19926;-73
2022/08/20 06:31:10;;;;;;;;;;;26.10;68.60;;;;;;4928245;29;19985;-75
2022/08/20 06:33:35;;;;;;;;;;;26.10;68.50;;;;;;4938293;29;19911;-68
2022/08/20 06:36:01;;;;;;;;;;;26.20;68.20;;;;;;4937250;29;19915;-70
2022/08/20 06:38:27;;;;;;;;;;;26.40;66.60;;;;;;4937774;29;19911;-71
2022/08/20 06:40:52;;;;;;;;;;;26.50;65.40;;;;;;4938099;29;19966;-65
2022/08/20 06:43:18;;;;;;;;;;;26.60;65.50;;;;;;4937706;29;19911;-67
2022/08/20 06:45:43;;;;;;;;;;;26.70;66.10;;;;;;4938094;29;19911;-70
2022/08/20 06:48:10;;;;;;;;;;;26.60;65.80;;;;;;4937677;29;19919;-67
2022/08/20 06:50:45;;;;;;;;;;;26.40;64.70;;;;;;4937912;29;19910;-69
2022/08/20 06:53:12;;;;;;;;;;;26.30;66.70;;;;;;4938134;29;19921;-66
2022/08/20 06:55:39;;;;;;;;;;;26.20;68.40;;;;;;4937939;29;19915;-69
2022/08/20 06:58:05;;;;;;;;;;;26.10;67.60;;;;;;4937899;29;19923;-69
2022/08/20 07:00:32;;;;;;;;;;;26.00;69.50;;;;;;4937813;29;19961;-66
2022/08/20 07:02:59;;;;;;;;;;;25.80;70.40;;;;;;4939667;29;19966;-65
2022/08/20 07:05:28;;;;;;;;;;;25.90;70.00;;;;;;4949262;29;20137;-66
2022/08/20 07:07:53;;;;;;;;;;;26.10;71.50;;;;;;4950811;29;19938;-65
2022/08/20 07:10:19;;;;;;;;;;;26.20;69.60;;;;;;4946871;29;19920;-68
2022/08/20 07:12:46;;;;;;;;;;;26.10;69.70;;;;;;4947753;29;19914;-67
2022/08/20 07:15:13;;;;;;;;;;;25.90;67.70;;;;;;4932356;29;20271;-68
2022/08/20 07:17:40;;;;;;;;;;;26.00;68.90;;;;;;4943761;29;19922;-69
2022/08/20 07:20:11;;;;;;;;;;;26.00;70.40;;;;;;4938144;29;20299;-68
2022/08/20 07:22:37;;;;;;;;;;;26.00;69.70;;;;;;4937547;29;20001;-68
2022/08/20 07:25:03;;;;;;;;;;;25.80;70.10;;;;;;4936844;29;20399;-64
2022/08/20 07:27:29;;;;;;;;;;;25.70;69.70;;;;;;4937207;29;20013;-70
2022/08/20 07:32:38;;;;;;;;;;;25.80;69.00;;;;;;4937035;29;20362;-69
2022/08/20 07:35:10;;;;;;;;;;;25.80;68.30;;;;;;4937122;29;19910;-66
2022/08/20 07:37:36;;;;;;;;;;;25.80;67.00;;;;;;4919838;29;19946;-66
2022/08/20 07:40:02;;;;;;;;;;;25.80;66.60;;;;;;4937963;29;19950;-66
2022/08/20 07:42:30;;;;;;;;;;;25.90;66.40;;;;;;4937485;29;19982;-66
2022/08/20 07:44:55;;;;;;;;;;;26.20;67.40;;;;;;4936954;29;20314;-65
2022/08/20 07:47:21;;;;;;;;;;;26.50;65.20;;;;;;4936234;29;19998;-65
2022/08/20 07:49:47;;;;;;;;;;;26.80;63.30;;;;;;4936920;29;19957;-67
2022/08/20 07:52:12;;;;;;;;;;;27.10;62.00;;;;;;4936552;29;20323;-67
2022/08/20 07:54:38;;;;;;;;;;;27.40;61.00;;;;;;4937019;29;19946;-66
2022/08/20 07:57:04;;;;;;;;;;;27.50;58.90;;;;;;4936615;29;20355;-65
2022/08/20 07:59:30;;;;;;;;;;;27.70;58.80;;;;;;4936559;29;20062;-69
2022/08/20 08:01:57;;;;;;;;;;;27.90;58.50;;;;;;4936804;29;20386;-69
2022/08/20 08:04:23;;;;;;;;;;;28.10;58.90;;;;;;4936645;29;19911;-68
2022/08/20 08:06:52;;;;;;;;;;;28.30;58.00;;;;;;4936733;29;20066;-67
2022/08/20 08:09:17;;;;;;;;;;;28.40;57.00;;;;;;4936685;29;20024;-67
2022/08/20 08:11:49;;;;;;;;;;;28.50;56.30;;;;;;4920013;29;19919;-68
2022/08/20 08:14:22;;;;;;;;;;;28.30;55.70;;;;;;4936622;29;19911;-66
2022/08/20 08:16:48;;;;;;;;;;;28.30;56.30;;;;;;4936574;29;19914;-69
2022/08/20 08:19:15;;;;;;;;;;;28.40;55.90;;;;;;4936273;29;19911;-68
2022/08/20 08:21:40;;;;;;;;;;;28.40;55.90;;;;;;4936681;29;19911;-67
2022/08/20 08:24:06;;;;;;;;;;;28.50;56.20;;;;;;4936361;29;19918;-67
2022/08/20 08:26:31;;;;;;;;;;;28.60;56.60;;;;;;4936184;29;19911;-71
2022/08/20 08:28:57;;;;;;;;;;;28.40;53.00;;;;;;4936384;29;19922;-70
2022/08/20 08:31:24;;;;;;;;;;;28.40;55.60;;;;;;4936460;29;19911;-66
2022/08/20 08:33:50;;;;;;;;;;;28.50;55.90;;;;;;4936458;29;19915;-68
2022/08/20 08:36:15;;;;;;;;;;;28.60;54.10;;;;;;4936494;29;19911;-69
2022/08/20 08:38:42;;;;;;;;;;;28.70;54.90;;;;;;4936321;29;20018;-67
2022/08/20 08:41:28;;;;;;;;;;;28.70;53.70;;;;;;4936483;29;19911;-68
2022/08/20 08:43:58;;;;;;;;;;;28.90;54.00;;;;;;4936416;29;19942;-68
2022/08/20 08:46:26;;;;;;;;;;;29.00;54.20;;;;;;4936130;29;19914;-68
2022/08/20 08:48:53;;;;;;;;;;;29.10;52.70;;;;;;4936115;29;20286;-65
2022/08/20 08:51:25;;;;;;;;;;;29.10;52.40;;;;;;4936252;29;20021;-71
2022/08/20 08:53:54;;;;;;;;;;;29.00;52.50;;;;;;4936212;29;19915;-69
2022/08/20 08:56:22;;;;;;;;;;;28.80;51.20;;;;;;4936204;29;19911;-71
2022/08/20 08:58:48;;;;;;;;;;;28.90;52.60;;;;;;4936062;29;19926;-65
2022/08/20 09:01:19;;;;;;;;;;;28.90;52.30;;;;;;4939271;29;19911;-72
2022/08/20 09:03:46;;;;;;;;;;;28.90;51.50;;;;;;4922470;29;19910;-70
2022/08/20 09:06:17;;;;;;;;;;;28.90;50.70;;;;;;4939868;29;20013;-70
2022/08/20 09:08:46;;;;;;;;;;;28.90;51.10;;;;;;4939538;29;19918;-69
2022/08/20 09:11:12;;;;;;;;;;;28.90;51.70;;;;;;4939409;29;19911;-72
2022/08/20 09:13:38;;;;;;;;;;;29.00;50.90;;;;;;4939517;29;20330;-73
2022/08/20 09:16:03;;;;;;;;;;;29.10;50.00;;;;;;4939612;29;19918;-70
2022/08/20 09:18:29;;;;;;;;;;;29.00;49.70;;;;;;4939505;29;19911;-70
2022/08/20 09:20:55;;;;;;;;;;;29.10;49.80;;;;;;4939275;29;19911;-68
2022/08/20 09:23:20;;;;;;;;;;;29.10;50.20;;;;;;4922185;29;19915;-69
2022/08/20 09:25:46;;;;;;;;;;;29.20;50.80;;;;;;4939173;29;19910;-70
2022/08/20 09:28:12;;;;;;;;;;;29.20;54.80;;;;;;4939031;29;19926;-70
2022/08/20 09:30:37;;;;;;;;;;;29.20;56.40;;;;;;4939000;29;20322;-71
2022/08/20 09:33:03;;;;;;;;;;;29.10;56.30;;;;;;4939170;29;19911;-70
2022/08/20 09:35:28;;;;;;;;;;;28.80;55.30;;;;;;4939211;29;19911;-70
2022/08/20 09:37:54;;;;;;;;;;;28.50;56.80;;;;;;4939168;29;19938;-72
2022/08/20 09:40:21;;;;;;;;;;;28.70;56.60;;;;;;4939195;29;19910;-72
2022/08/20 09:42:46;;;;;;;;;;;28.90;56.40;;;;;;4940109;29;19917;-69
2022/08/20 09:45:12;;;;;;;;;;;29.10;55.70;;;;;;4939627;29;19911;-71
2022/08/20 09:47:39;;;;;;;;;;;29.10;56.10;;;;;;4939514;29;20356;-65
2022/08/20 09:50:05;;;;;;;;;;;29.10;55.00;;;;;;4938951;29;19950;-67
2022/08/20 09:52:31;;;;;;;;;;;29.00;56.20;;;;;;4939088;29;20344;-67
2022/08/20 09:54:58;;;;;;;;;;;29.10;56.20;;;;;;4938890;29;20260;-68
2022/08/20 09:57:25;;;;;;;;;;;29.20;56.10;;;;;;4921564;29;20307;-70
2022/08/20 09:59:53;;;;;;;;;;;29.10;57.00;;;;;;4938862;29;19977;-71
2022/08/20 10:02:18;;;;;;;;;;;29.00;56.60;;;;;;4938555;29;19915;-70
2022/08/20 10:04:44;;;;;;;;;;;28.90;57.20;;;;;;4938900;29;20014;-67
2022/08/20 10:07:09;;;;;;;;;;;28.50;57.80;;;;;;4938757;29;20406;-71
2022/08/20 10:09:36;;;;;;;;;;;28.20;59.60;;;;;;4938261;29;20034;-67
2022/08/20 10:12:01;;;;;;;;;;;28.20;60.70;;;;;;4938357;29;19931;-66
2022/08/20 10:14:27;;;;;;;;;;;28.20;60.70;;;;;;4938292;29;19911;-65
2022/08/20 10:16:57;;;;;;;;;;;27.90;61.60;;;;;;4921222;29;19949;-68
2022/08/20 10:19:22;;;;;;;;;;;27.80;63.10;;;;;;4938646;29;20009;-67
2022/08/20 10:21:52;;;;;;;;;;;27.80;63.70;;;;;;4938302;29;20007;-71
2022/08/20 10:24:18;;;;;;;;;;;27.90;64.00;;;;;;4937866;29;19917;-70
2022/08/20 10:26:44;;;;;;;;;;;27.90;64.50;;;;;;4938287;29;19953;-70
2022/08/20 10:29:09;;;;;;;;;;;28.00;65.00;;;;;;4938116;29;20372;-69
2022/08/20 10:31:35;;;;;;;;;;;28.00;65.00;;;;;;4938091;29;19911;-73
2022/08/20 10:34:01;;;;;;;;;;;28.00;64.80;;;;;;4937925;29;20022;-73
2022/08/20 10:36:26;;;;;;;;;;;28.10;64.20;;;;;;4938164;29;19911;-72
2022/08/20 10:38:52;;;;;;;;;;;28.00;64.50;;;;;;4937802;29;19918;-71
2022/08/20 10:41:18;;;;;;;;;;;28.00;64.60;;;;;;4938469;29;19965;-71
2022/08/20 10:43:44;;;;;;;;;;;27.90;65.10;;;;;;4937956;29;19934;-72
2022/08/20 10:46:09;;;;;;;;;;;27.90;65.60;;;;;;4937908;29;20338;-71
2022/08/20 10:48:35;;;;;;;;;;;28.10;65.30;;;;;;4937696;29;19926;-72
2022/08/20 10:51:01;;;;;;;;;;;28.30;64.00;;;;;;4937891;29;20422;-68
2022/08/20 10:53:26;;;;;;;;;;;28.30;62.40;;;;;;4937576;29;19911;-72
2022/08/20 10:55:53;;;;;;;;;;;28.40;61.80;;;;;;4938029;29;20418;-72
2022/08/20 10:58:18;;;;;;;;;;;28.60;61.70;;;;;;4937854;29;20240;-72
2022/08/20 11:00:45;;;;;;;;;;;28.70;61.00;;;;;;4937560;29;19933;-71
2022/08/20 11:03:11;;;;;;;;;;;28.60;58.90;;;;;;4937480;29;19958;-71
2022/08/20 11:05:36;;;;;;;;;;;28.80;59.60;;;;;;4937580;29;19911;-71
2022/08/20 11:08:03;;;;;;;;;;;28.90;58.40;;;;;;4937606;29;19923;-72
2022/08/20 11:10:29;;;;;;;;;;;28.80;58.40;;;;;;4937260;29;19911;-71
2022/08/20 11:12:55;;;;;;;;;;;28.90;59.10;;;;;;4937459;29;20252;-72
2022/08/20 11:15:21;;;;;;;;;;;28.80;59.00;;;;;;4937667;29;19914;-73
2022/08/20 11:17:46;;;;;;;;;;;28.80;59.10;;;;;;4937305;29;20288;-73
2022/08/20 11:20:13;;;;;;;;;;;28.30;59.60;;;;;;4937115;29;20006;-71
2022/08/20 11:22:39;;;;;;;;;;;28.20;61.00;;;;;;4936409;29;19915;-72
2022/08/20 11:25:05;;;;;;;;;;;27.90;61.40;;;;;;4937310;29;19926;-72
2022/08/20 11:27:32;;;;;;;;;;;27.20;65.50;;;;;;4937123;29;19918;-71
2022/08/20 11:29:58;;;;;;;;;;;26.60;69.10;;;;;;4937278;29;20272;-72
2022/08/20 11:32:24;;;;;;;;;;;25.90;73.90;;;;;;4937168;29;19911;-71
2022/08/20 11:34:50;;;;;;;;;;;25.90;78.10;;;;;;4937247;29;19911;-72
2022/08/20 11:37:16;;;;;;;;;;;25.80;79.10;;;;;;4936802;29;19910;-73
2022/08/20 11:39:42;;;;;;;;;;;25.80;78.20;;;;;;4937098;29;19922;-71
2022/08/20 11:42:08;;;;;;;;;;;25.70;79.20;;;;;;4937014;29;19965;-70
2022/08/20 11:44:33;;;;;;;;;;;25.70;79.30;;;;;;4936703;29;20378;-67
2022/08/20 11:47:02;;;;;;;;;;;25.60;77.00;;;;;;4936703;29;19911;-71
2022/08/20 11:49:35;;;;;;;;;;;25.60;78.00;;;;;;4936710;29;19984;-72
2022/08/20 11:52:00;;;;;;;;;;;25.60;79.80;;;;;;4936657;29;19918;-72
2022/08/20 11:54:31;;;;;;;;;;;25.60;79.60;;;;;;4936631;29;19911;-72
2022/08/20 11:56:57;;;;;;;;;;;25.60;78.90;;;;;;4936643;29;19910;-72
2022/08/20 11:59:23;;;;;;;;;;;25.80;77.90;;;;;;4936506;29;19922;-70
2022/08/20 12:01:49;;;;;;;;;;;26.00;78.40;;;;;;4936561;29;19970;-70
2022/08/20 12:04:14;;;;;;;;;;;26.10;78.30;;;;;;4936565;29;19911;-72
2022/08/20 12:06:40;;;;;;;;;;;26.50;78.90;;;;;;4936676;29;19915;-70
2022/08/20 12:09:05;;;;;;;;;;;26.80;78.50;;;;;;4936405;29;19964;-71
2022/08/20 12:11:31;;;;;;;;;;;27.10;76.20;;;;;;4936527;29;20323;-70
2022/08/20 12:13:56;;;;;;;;;;;27.30;73.30;;;;;;4936625;29;19911;-70
2022/08/20 12:16:22;;;;;;;;;;;27.40;73.50;;;;;;4936721;29;19915;-71
2022/08/20 12:18:48;;;;;;;;;;;27.60;73.40;;;;;;4936539;29;19911;-69
2022/08/20 12:21:14;;;;;;;;;;;27.70;73.00;;;;;;4936565;29;20390;-68
2022/08/20 12:23:39;;;;;;;;;;;27.60;74.20;;;;;;4936509;29;19911;-71
2022/08/20 12:26:05;;;;;;;;;;;27.60;75.40;;;;;;4936536;29;19935;-72
2022/08/20 12:28:31;;;;;;;;;;;27.70;76.10;;;;;;4936441;29;19981;-70
2022/08/20 12:30:57;;;;;;;;;;;27.80;77.40;;;;;;4936225;29;19911;-73
2022/08/20 12:33:22;;;;;;;;;;;27.90;76.10;;;;;;4936698;29;20178;-71
2022/08/20 12:35:48;;;;;;;;;;;28.10;73.80;;;;;;4940471;29;20065;-69
2022/08/20 12:38:13;;;;;;;;;;;28.10;60.20;;;;;;4940511;29;19918;-68
2022/08/20 12:40:39;;;;;;;;;;;28.30;59.10;;;;;;4940121;29;20402;-70
2022/08/20 12:43:05;;;;;;;;;;;28.50;60.60;;;;;;4940202;29;19918;-73
2022/08/20 12:45:31;;;;;;;;;;;28.80;61.30;;;;;;4940033;29;19915;-71
2022/08/20 12:48:07;;;;;;;;;;;28.90;62.50;;;;;;4940077;29;19918;-71
2022/08/20 12:50:34;;;;;;;;;;;29.00;62.80;;;;;;4939786;29;19958;-67
2022/08/20 12:52:59;;;;;;;;;;;29.10;61.20;;;;;;4940383;29;20021;-69
2022/08/20 12:55:25;;;;;;;;;;;29.10;57.60;;;;;;4939808;29;20341;-72
2022/08/20 12:57:52;;;;;;;;;;;29.20;56.70;;;;;;4939855;29;19922;-70
2022/08/20 13:00:21;;;;;;;;;;;29.20;58.10;;;;;;4939706;29;19920;-71
2022/08/20 13:02:47;;;;;;;;;;;29.20;57.50;;;;;;4939890;29;20009;-70
2022/08/20 13:05:13;;;;;;;;;;;29.30;56.70;;;;;;4939825;29;19911;-71
2022/08/20 13:07:40;;;;;;;;;;;29.50;57.00;;;;;;4939604;29;19915;-71
2022/08/20 13:10:06;;;;;;;;;;;29.60;57.70;;;;;;4939723;29;19917;-71
2022/08/20 13:12:31;;;;;;;;;;;29.70;54.20;;;;;;4939861;29;19965;-71
2022/08/20 13:14:57;;;;;;;;;;;29.70;54.60;;;;;;4939594;29;20398;-71
2022/08/20 13:17:22;;;;;;;;;;;29.90;55.80;;;;;;4939641;29;19966;-71
2022/08/20 13:19:48;;;;;;;;;;;30.00;55.90;;;;;;4939613;29;19911;-66
2022/08/20 13:22:14;;;;;;;;;;;30.10;57.10;;;;;;4939521;29;20385;-69
2022/08/20 13:24:39;;;;;;;;;;;30.10;56.00;;;;;;4939438;29;19911;-73
2022/08/20 13:27:11;;;;;;;;;;;29.80;55.90;;;;;;4939501;29;19910;-71
2022/08/20 13:29:37;;;;;;;;;;;30.00;57.10;;;;;;4939148;29;19937;-73
2022/08/20 13:32:04;;;;;;;;;;;30.00;58.00;;;;;;4939483;29;19918;-68
2022/08/20 13:34:30;;;;;;;;;;;29.90;53.70;;;;;;4939324;29;19950;-71
2022/08/20 13:36:55;;;;;;;;;;;29.80;55.00;;;;;;4939373;29;20005;-71
2022/08/20 13:39:21;;;;;;;;;;;29.70;55.60;;;;;;4939357;29;20378;-73
2022/08/20 13:41:47;;;;;;;;;;;29.70;56.30;;;;;;4939282;29;19911;-72
2022/08/20 13:44:13;;;;;;;;;;;29.60;56.30;;;;;;4938930;29;20013;-72
2022/08/20 13:46:38;;;;;;;;;;;29.30;54.70;;;;;;4938584;29;20315;-68
2022/08/20 13:49:04;;;;;;;;;;;29.40;56.20;;;;;;4939111;29;19919;-69
2022/08/20 13:51:29;;;;;;;;;;;29.30;57.70;;;;;;4939367;29;20005;-70
2022/08/20 13:53:55;;;;;;;;;;;29.40;58.00;;;;;;4939325;29;19910;-70
2022/08/20 13:56:21;;;;;;;;;;;29.20;55.50;;;;;;4939828;29;19914;-71
2022/08/20 13:58:46;;;;;;;;;;;29.20;54.30;;;;;;4938851;29;20371;-71
2022/08/20 14:01:12;;;;;;;;;;;29.20;55.50;;;;;;4938824;29;20340;-73
2022/08/20 14:03:37;;;;;;;;;;;29.10;56.30;;;;;;4939312;29;19911;-71
2022/08/20 14:06:03;;;;;;;;;;;29.10;57.20;;;;;;4939962;29;19918;-70
2022/08/20 14:08:28;;;;;;;;;;;29.10;57.20;;;;;;4938931;29;19926;-68
2022/08/20 14:10:54;;;;;;;;;;;29.10;58.60;;;;;;4938470;29;19938;-68
2022/08/20 14:13:21;;;;;;;;;;;29.00;61.50;;;;;;4938750;29;19911;-72
2022/08/20 14:15:47;;;;;;;;;;;28.90;66.20;;;;;;4938789;29;19915;-71
2022/08/20 14:18:13;;;;;;;;;;;28.80;64.30;;;;;;4938474;29;20016;-71